• Join FlightAware (Why Join?)
  • Login
  • US Flag 
05:37PM EDT


 

Airport Tracker/Info


-or-


 

Live Flight TrackerFlight Track Log ✈ AWE3921 ✈ 10-May-2013 ✈ KDCA - KCAE

Flight Track Log - Related Links

Times and Time Zones

All times are in EDT time to prevent confusion due to time zone crossing. See the AWE3921 flight status page for this flight to view local times or setup timezone preferences in your user account.

Time Position Orientation Groundspeed Altitude Reporting Facility
EDT Latitude Longitude Course Direction KTS MPH feet Rate Location/Type
02:32PM 38.5213 -77.3333 215° Southwest  Level Estimated
02:33PM 38.4109 -77.4312 215° Southwest  Level Estimated
02:34PM 38.3005 -77.5289 215° Southwest  Level Estimated
02:35PM 38.1899 -77.6262 215° Southwest  Level Estimated
02:36PM 38.0793 -77.7232 215° Southwest  Level Estimated
02:37PM 37.9687 -77.8200 215° Southwest  Level Estimated
02:38PM 37.8579 -77.9165 215° Southwest  Level Estimated
02:39PM 37.7470 -78.0126 214° Southwest  Level Estimated
02:40PM 37.6361 -78.1085 214° Southwest  Level Estimated
02:41PM 37.5251 -78.2041 214° Southwest  Level Estimated
02:42PM 37.4140 -78.2994 214° Southwest  Level Estimated
02:43PM 37.3029 -78.3944 214° Southwest  Level Estimated
02:44PM 37.1916 -78.4892 214° Southwest  Level Estimated
02:45PM 37.0803 -78.5836 214° Southwest  Level Estimated
02:46PM 36.9689 -78.6778 214° Southwest  Level Estimated
02:47PM 36.8575 -78.7718 214° Southwest  Level Estimated
02:48PM 36.7459 -78.8654 214° Southwest  Level Estimated
02:49PM 36.6343 -78.9588 214° Southwest  Level Estimated
02:50PM 36.5227 -79.0519 214° Southwest  Level Estimated
02:51PM 36.4109 -79.1447 214° Southwest  Level Estimated
02:52PM 36.2991 -79.2373 214° Southwest  Level Estimated
02:53PM 36.1872 -79.3296 214° Southwest  Level Estimated
02:54PM 36.0752 -79.4216 214° Southwest  Level Estimated
02:55PM 35.9632 -79.5134 214° Southwest  Level Estimated
02:56PM 35.8511 -79.6049 213° Southwest  Level Estimated
02:57PM 35.7389 -79.6961 213° Southwest  Level Estimated
02:58PM 35.6267 -79.7871 213° Southwest  Level Estimated
02:59PM 35.5144 -79.8779 213° Southwest  Level Estimated
03:00PM 35.4020 -79.9683 213° Southwest  Level Estimated
03:01PM 35.2896 -80.0586 213° Southwest  Level Estimated
03:02PM 35.1771 -80.1486 213° Southwest  Level Estimated
03:03PM 35.0645 -80.2383 213° Southwest  Level Estimated
03:04PM 34.9519 -80.3278 213° Southwest  Level Estimated
03:05PM 34.8391 -80.4170 213° Southwest  Level Estimated
03:06PM 34.7264 -80.5060 213° Southwest  Level Estimated
03:07PM 34.6135 -80.5948 213° Southwest  Level Estimated
03:08PM 34.5006 -80.6833 213° Southwest  Level Estimated
03:09PM 34.3877 -80.7716 213° Southwest  Level Estimated
03:10PM 34.2746 -80.8596 213° Southwest  Level Estimated
03:11PM 34.1615 -80.9474 213° Southwest  Level Estimated
03:12PM 34.0484 -81.0350 213° Southwest  Level Estimated
03:13PM 33.9388 -81.1195 213° Southwest  Level Estimated
03:14PM 33.9388 -81.1195 29° Northeast  Level Estimated
03:15PM 33.9388 -81.1195 29° Northeast  Level Estimated
03:16PM 33.9388 -81.1195 29° Northeast  Level Estimated
03:17PM 33.9388 -81.1195 29° Northeast  Level Estimated
03:18PM 33.9388 -81.1195 29° Northeast  Level Estimated
03:19PM 33.9388 -81.1195 29° Northeast  Level Estimated
03:20PM 33.9388 -81.1195 29° Northeast  Level Estimated
03:21PM 33.9388 -81.1195 29° Northeast  Level Estimated
03:22PM 33.9388 -81.1195 29° Northeast  Level Estimated
03:23PM 33.9388 -81.1195 29° Northeast  Level Estimated
03:24PM 33.9388 -81.1195 29° Northeast  Level Estimated
03:25PM 33.9388 -81.1195 29° Northeast  Level Estimated
03:26PM 33.9388 -81.1195 29° Northeast  Level Estimated
03:27PM 33.9388 -81.1195 29° Northeast  Level Estimated
03:28PM 33.9388 -81.1195 29° Northeast  Level Estimated
03:29PM 33.9388 -81.1195 29° Northeast  Level Estimated
03:30PM 33.9388 -81.1195 29° Northeast  Level Estimated
03:31PM 33.9388 -81.1195 29° Northeast  Level Estimated
03:32PM 33.9388 -81.1195 29° Northeast  Level Estimated
03:33PM 33.9388 -81.1195 29° Northeast  Level Estimated
03:34PM 33.9388 -81.1195 29° Northeast  Level Estimated
03:35PM 33.9388 -81.1195 29° Northeast  Level Estimated
03:36PM 33.9388 -81.1195 29° Northeast  Level Estimated
03:37PM 33.9388 -81.1195 29° Northeast  Level Estimated
03:38PM 33.9388 -81.1195 29° Northeast  Level Estimated
03:39PM 33.9388 -81.1195 29° Northeast  Level Estimated